Chomedey, Canada
Current Conditions -  °F | °C
As of 11:00 AM on Saturday 22 Nov 2014 (Local Time) from CYUL Reporting Station
Overcast Overcast  
Wind Chill: 20°   Ceiling: 13000
Heat Index: 32°   Visibility: 15mi
Dew Point: 19°   Wind: 18mph
Humidity: 60%   Direction: 230°SW
Pressure: 30.06"   Gusts: 31mph
Location:  45.55°N, 73.73°W
Report Text: CYUL 221600Z 23016G27KT 15SM FEW040 BKN130 OVC220 M00/M07 A3006 RMK SC1AC7CI1 SC TR SLP182
Loading
Personal Weather Stations






























Interactive Weather Map New forecast layout! Learn more

10-Day Weather Forecast

Advertisements
Track Severe Weather on mobile